METAR Data
IDs: Format: Raw Decoded Include TAF

Data at: 0107 UTC 06 Dec 2019

TIST 060053Z 07006KT 10SM CLR 27/23 A3003 RMK AO2 SLP171 T02720228
TIST 052353Z 07006KT 10SM SCT030 28/23 A3002 RMK AO2 SLP167 T02780233 10300 20278 53018
TIST 052253Z 09007KT 10SM FEW022 28/23 A3000 RMK AO2 SLP159 T02780233
TIST 052153Z 13006KT 10SM SCT030 28/23 A2998 RMK AO2 SLP153 T02830233
TIST 052053Z 12008KT 10SM CLR 29/23 A2997 RMK AO2 SLP149 T02890228 53002
TIST 051953Z 12007KT 10SM FEW030 30/23 A2996 RMK AO2 SLP144 T03000228
TIST 051853Z 11010KT 10SM FEW030 30/23 A2996 RMK AO2 SLP145 T03000233
TIST 051753Z 13011KT 10SM FEW030 30/23 A2997 RMK AO2 SLP148 T03000233 10306 20278 58024
TIST 051653Z 11010KT 10SM SCT030 30/23 A2999 RMK AO2 SLP156 T03000233
TIST 051553Z 12011KT 10SM SCT030 30/23 A3002 RMK AO2 SLP166 T03000233
TIST 051453Z 11013KT 10SM FEW030 29/24 A3004 RMK AO2 SLP172 T02940239 50006
TIST 051353Z 12012KT 10SM FEW030 29/23 A3004 RMK AO2 SLP174 T02940233
TIST 051253Z 12011KT 10SM FEW024 29/23 A3004 RMK AO2 SLP172 T02890233
TIST 051053Z AUTO 08006KT 10SM FEW021 FEW026 27/23 A3000 RMK AO2 SLP160 T02670233
TIST 050953Z AUTO 12009KT 10SM FEW022 FEW031 28/23 A2997 RMK AO2 SLP148 T02780233
TIST 050853Z AUTO 11011KT 10SM FEW020 28/23 A2994 RMK AO2 SLP140 T02780233 55007
TIST 050753Z AUTO 12012KT 10SM FEW026 SCT030 28/23 A2994 RMK AO2 SLP139 T02780228
TIST 050653Z AUTO 11010KT 10SM FEW021 SCT027 SCT035 27/23 A2994 RMK AO2 SLP139 T02720228
TIST 050553Z AUTO 10007KT 10SM FEW023 27/23 A2996 RMK AO2 SLP146 T02720233 10278 20267 58015
TIST 050453Z AUTO 11008KT 10SM CLR 27/23 A2999 RMK AO2 SLP154 T02670228
TIST 050353Z AUTO 08005KT 10SM CLR 27/23 A3000 RMK AO2 SLP159 T02670228 403000256
TIST 050253Z AUTO 07005KT 10SM CLR 27/23 A3001 RMK AO2 SLP161 T02670228 51010
TIST 050153Z AUTO 09007KT 10SM CLR 27/23 A3000 RMK AO2 SLP159 T02720233
TIST 050053Z 07007KT 10SM CLR 27/23 A2999 RMK AO2 SLP157 T02720233
TIST 042353Z 07007KT 10SM FEW026 28/23 A2998 RMK AO2 SLP151 T02780233 10300 20278 53013
TIST 042253Z 11006KT 10SM SCT022 28/23 A2996 RMK AO2 SLP144 T02830233
TIST 042153Z 13008KT 10SM FEW020 28/23 A2994 RMK AO2 SLP139 T02830233
TIST 042053Z 13008KT 10SM SCT030 29/23 A2994 RMK AO2 SLP138 T02890233 56002
TIST 041953Z 13009KT 10SM SCT030 29/23 A2994 RMK AO2 SLP140 T02940233
TIST 041853Z 12012KT 10SM SCT030 29/23 A2993 RMK AO2 SLP137 T02940233
TIST 041753Z 13011KT 10SM CLR 30/24 A2995 RMK AO2 SLP141 T03000239 10300 20272 56022
TIST 041653Z 13008KT 10SM SCT020 30/24 A2996 RMK AO2 SLP146 T03000244
TIST 041553Z 14008KT 10SM FEW030 29/24 A2999 RMK AO2 SLP156 T02940239
TIST 041453Z 13010KT 10SM FEW030 29/24 A3001 RMK AO2 SLP162 T02890239 51014
TIST 041353Z 14012KT 10SM FEW019 29/24 A3001 RMK AO2 SLP161 T02890239